createdAt,value
2019-06-20T00:00:11.500Z,82.00
2019-06-20T00:02:40.513Z,82.20
2019-06-20T00:05:09.677Z,82.50
2019-06-20T00:07:38.720Z,82.90
2019-06-20T00:10:08.214Z,82.30
2019-06-20T00:12:37.191Z,82.00
2019-06-20T00:15:07.441Z,82.20
2019-06-20T00:17:36.740Z,82.20
2019-06-20T00:20:05.863Z,82.20
2019-06-20T00:22:34.915Z,82.20
2019-06-20T00:25:04.451Z,82.20
2019-06-20T00:27:33.796Z,82.10
2019-06-20T00:30:02.900Z,82.00
2019-06-20T00:32:31.875Z,81.80
2019-06-20T00:35:00.929Z,82.30
2019-06-20T00:37:29.922Z,82.10
2019-06-20T00:40:00.533Z,82.80
2019-06-20T00:42:29.499Z,83.00
2019-06-20T00:44:58.717Z,83.00
2019-06-20T00:47:28.578Z,82.50
2019-06-20T00:49:57.554Z,82.50
2019-06-20T00:52:26.962Z,82.50
2019-06-20T00:54:56.269Z,82.90
2019-06-20T00:57:25.667Z,82.50
2019-06-20T00:59:54.652Z,82.70
2019-06-20T01:02:23.617Z,82.40
2019-06-20T01:04:52.959Z,82.50
2019-06-20T01:07:21.923Z,82.60
2019-06-20T01:09:50.899Z,82.50
2019-06-20T01:12:19.905Z,82.80
2019-06-20T01:14:48.960Z,82.40
2019-06-20T01:17:18.058Z,82.30
2019-06-20T01:19:47.066Z,82.50
2019-06-20T01:22:16.092Z,82.60
2019-06-20T01:24:45.087Z,82.40
2019-06-20T01:27:14.085Z,82.70
2019-06-20T01:29:43.292Z,83.00
2019-06-20T01:32:12.342Z,82.70
2019-06-20T01:34:41.680Z,82.40
2019-06-20T01:37:10.732Z,82.70
2019-06-20T01:39:39.699Z,82.80
2019-06-20T01:42:08.768Z,83.10
2019-06-20T01:44:37.736Z,83.00
2019-06-20T01:47:06.775Z,83.00
2019-06-20T01:49:35.822Z,83.30
2019-06-20T01:52:05.028Z,83.70
2019-06-20T01:54:34.034Z,83.40
2019-06-20T01:57:03.071Z,83.00
2019-06-20T01:59:32.384Z,83.40
2019-06-20T02:02:01.483Z,83.60
2019-06-20T02:04:30.747Z,83.00
2019-06-20T02:06:59.882Z,82.30
2019-06-20T02:09:28.862Z,82.30
2019-06-20T02:11:57.904Z,82.20
2019-06-20T02:14:26.894Z,81.70
2019-06-20T02:16:55.927Z,81.90
2019-06-20T02:19:24.929Z,82.10
2019-06-20T02:21:53.899Z,81.90
2019-06-20T02:24:22.943Z,82.00
2019-06-20T02:26:51.930Z,82.10
2019-06-20T02:29:20.971Z,82.30
2019-06-20T02:31:49.967Z,82.40
2019-06-20T02:34:18.992Z,82.90
2019-06-20T02:36:47.986Z,82.40
2019-06-20T02:39:17.018Z,82.30
2019-06-20T02:41:46.420Z,82.40
2019-06-20T02:44:29.156Z,82.60
2019-06-20T02:46:46.063Z,82.80
2019-06-20T02:49:15.110Z,82.30
2019-06-20T02:51:44.142Z,81.60
2019-06-20T02:54:13.385Z,81.50
2019-06-20T02:56:42.415Z,81.50
2019-06-20T02:59:11.389Z,81.10
2019-06-20T03:01:40.447Z,81.20
2019-06-20T03:04:09.419Z,81.90
2019-06-20T03:06:38.483Z,81.70
2019-06-20T03:09:07.652Z,82.20
2019-06-20T03:11:36.740Z,82.00
2019-06-20T03:14:05.912Z,82.10
2019-06-20T03:16:34.877Z,82.10
2019-06-20T03:19:03.932Z,82.30
2019-06-20T03:21:32.907Z,82.40
2019-06-20T03:24:01.997Z,82.00
2019-06-20T03:26:31.006Z,82.30
2019-06-20T03:29:00.023Z,82.00
2019-06-20T03:31:28.985Z,81.90
2019-06-20T03:33:58.027Z,82.20
2019-06-20T03:36:27.075Z,81.80
2019-06-20T03:38:56.034Z,82.00
2019-06-20T03:41:25.017Z,81.90
2019-06-20T03:43:54.360Z,81.90
2019-06-20T03:46:23.443Z,81.50
2019-06-20T03:48:52.470Z,81.60
2019-06-20T03:51:21.447Z,81.20
2019-06-20T03:53:50.499Z,80.70
2019-06-20T03:56:21.100Z,80.90
2019-06-20T03:58:50.079Z,80.70
2019-06-20T04:01:19.050Z,81.00
2019-06-20T04:03:48.066Z,80.70
2019-06-20T04:06:17.184Z,80.70
2019-06-20T04:08:46.277Z,81.00
2019-06-20T04:11:15.276Z,80.20
2019-06-20T04:13:44.654Z,80.70
2019-06-20T04:16:14.062Z,80.70
2019-06-20T04:18:43.101Z,81.40
2019-06-20T04:21:12.074Z,81.00
2019-06-20T04:23:41.132Z,81.60
2019-06-20T04:26:10.093Z,81.30
2019-06-20T04:28:39.076Z,81.20
2019-06-20T04:31:08.170Z,81.10
2019-06-20T04:33:37.534Z,81.60
2019-06-20T04:36:06.792Z,81.30
2019-06-20T04:38:35.763Z,81.20
2019-06-20T04:41:04.750Z,81.20
2019-06-20T04:43:34.056Z,81.30
2019-06-20T04:46:07.455Z,80.70
2019-06-20T04:48:36.414Z,80.60
2019-06-20T04:51:05.977Z,80.80
2019-06-20T04:53:34.960Z,80.90
2019-06-20T04:56:05.769Z,80.70
2019-06-20T04:58:35.044Z,81.20
2019-06-20T05:01:04.150Z,80.60
2019-06-20T05:03:33.166Z,81.10
2019-06-20T05:06:02.253Z,81.20
2019-06-20T05:08:31.274Z,81.70
2019-06-20T05:11:00.276Z,81.80
2019-06-20T05:13:29.307Z,81.40
2019-06-20T05:15:58.267Z,81.40
2019-06-20T05:18:27.246Z,81.20
2019-06-20T05:20:56.278Z,81.20
2019-06-20T05:23:25.256Z,81.30
2019-06-20T05:25:54.614Z,81.90
2019-06-20T05:28:23.605Z,81.40
2019-06-20T05:30:52.624Z,80.50
2019-06-20T05:33:21.582Z,80.60
2019-06-20T05:35:50.541Z,80.40
2019-06-20T05:38:19.535Z,80.50
2019-06-20T05:40:48.494Z,80.50
2019-06-20T05:43:17.481Z,81.30
2019-06-20T05:45:48.810Z,80.70
2019-06-20T05:48:17.209Z,80.80
2019-06-20T05:50:46.183Z,80.90
2019-06-20T05:53:15.166Z,80.70
2019-06-20T05:55:44.213Z,80.50
2019-06-20T05:58:13.184Z,81.00
2019-06-20T06:00:42.250Z,80.80
2019-06-20T06:03:14.361Z,80.80
2019-06-20T06:05:43.617Z,79.60
2019-06-20T06:08:12.649Z,80.00
2019-06-20T06:10:41.718Z,80.00
2019-06-20T06:13:10.757Z,79.50
2019-06-20T06:15:39.860Z,79.50
2019-06-20T06:18:08.953Z,79.00
2019-06-20T06:20:37.986Z,79.80
2019-06-20T06:23:06.994Z,80.20
2019-06-20T06:25:35.986Z,79.30
2019-06-20T06:28:05.425Z,79.20
2019-06-20T06:30:34.527Z,78.50
2019-06-20T06:33:03.925Z,78.40
2019-06-20T06:35:32.918Z,78.90
2019-06-20T06:38:01.888Z,79.20
2019-06-20T06:40:31.078Z,78.20
2019-06-20T06:43:00.086Z,77.80
2019-06-20T06:45:29.239Z,78.00
2019-06-20T06:47:58.279Z,78.50
2019-06-20T06:50:27.386Z,78.50
2019-06-20T06:52:56.388Z,78.10
2019-06-20T06:55:27.461Z,78.40
2019-06-20T06:57:56.099Z,78.30
2019-06-20T07:00:25.635Z,78.00
2019-06-20T07:02:55.440Z,77.90
2019-06-20T07:05:24.550Z,78.70
2019-06-20T07:07:53.534Z,79.30
2019-06-20T07:10:23.230Z,79.00
2019-06-20T07:12:52.190Z,78.20
2019-06-20T07:15:21.780Z,77.10
2019-06-20T07:17:50.743Z,77.60
2019-06-20T07:20:19.950Z,77.30
2019-06-20T07:22:48.913Z,77.60
2019-06-20T07:25:18.155Z,77.60
2019-06-20T07:27:47.239Z,77.40
2019-06-20T07:30:17.159Z,77.10
2019-06-20T07:32:46.559Z,78.10
2019-06-20T07:35:15.614Z,77.60
2019-06-20T07:37:44.951Z,75.60
2019-06-20T07:40:14.846Z,75.50
2019-06-20T07:42:43.829Z,74.60
2019-06-20T07:45:14.629Z,75.30
2019-06-20T07:47:43.666Z,75.10
2019-06-20T07:50:13.690Z,75.60
2019-06-20T07:52:42.666Z,74.50
2019-06-20T07:55:12.166Z,75.70
2019-06-20T07:57:41.131Z,74.10
2019-06-20T08:00:12.980Z,73.60
2019-06-20T08:02:42.249Z,74.80
2019-06-20T08:05:12.407Z,74.70
2019-06-20T08:07:41.449Z,71.70
2019-06-20T08:10:13.009Z,71.20
2019-06-20T08:12:42.106Z,70.70
2019-06-20T08:15:15.572Z,70.50
2019-06-20T08:17:43.696Z,69.50
2019-06-20T08:20:13.753Z,70.90
2019-06-20T08:22:43.391Z,69.20
2019-06-20T08:25:12.980Z,70.60
2019-06-20T08:27:52.470Z,68.70
2019-06-20T08:30:33.034Z,70.20
2019-06-20T08:33:07.561Z,69.00
2019-06-20T08:35:33.555Z,69.70
2019-06-20T08:38:03.643Z,69.80
2019-06-20T08:40:36.191Z,69.00
2019-06-20T08:43:06.242Z,70.20
2019-06-20T08:45:38.200Z,69.70
2019-06-20T08:48:07.805Z,70.50
2019-06-20T08:50:37.033Z,70.20
2019-06-20T08:53:06.555Z,70.80
2019-06-20T08:55:36.153Z,72.00
2019-06-20T08:58:05.813Z,70.80
2019-06-20T09:00:38.138Z,70.60
2019-06-20T09:03:07.658Z,72.30
2019-06-20T09:05:37.188Z,70.60
2019-06-20T09:08:11.267Z,70.90
2019-06-20T09:10:40.711Z,70.80
2019-06-20T09:13:11.515Z,71.50
2019-06-20T09:15:40.908Z,70.60
2019-06-20T09:18:09.955Z,70.20
2019-06-20T09:20:39.380Z,70.30
2019-06-20T09:23:08.445Z,68.50
2019-06-20T09:25:37.617Z,68.30
2019-06-20T09:28:07.487Z,69.40
2019-06-20T09:30:37.188Z,68.70
2019-06-20T09:33:06.542Z,68.00
2019-06-20T09:35:35.757Z,69.40
2019-06-20T09:38:05.252Z,67.10
2019-06-20T09:40:34.353Z,67.40
2019-06-20T09:43:03.471Z,69.90
2019-06-20T09:45:32.729Z,68.00
2019-06-20T09:48:02.660Z,67.50
2019-06-20T09:50:31.970Z,67.50
2019-06-20T09:53:01.424Z,69.50
2019-06-20T09:55:30.453Z,68.40
2019-06-20T09:57:59.482Z,68.30
2019-06-20T10:00:29.538Z,66.80
2019-06-20T10:02:58.837Z,67.00
2019-06-20T10:05:28.194Z,68.60
2019-06-20T10:07:57.197Z,66.80
2019-06-20T10:10:29.250Z,66.90
2019-06-20T10:12:58.550Z,68.70
2019-06-20T10:15:33.254Z,70.00
2019-06-20T10:18:02.425Z,70.00
2019-06-20T10:20:31.524Z,63.60
2019-06-20T10:23:00.508Z,62.50
2019-06-20T10:25:29.600Z,61.40
2019-06-20T10:27:58.588Z,62.80
2019-06-20T10:30:28.447Z,62.30
2019-06-20T10:32:57.962Z,59.80
2019-06-20T10:35:27.059Z,61.60
2019-06-20T10:37:57.217Z,60.70
2019-06-20T10:40:26.666Z,61.50
2019-06-20T10:42:56.883Z,59.70
2019-06-20T10:45:27.499Z,60.00
2019-06-20T10:47:56.605Z,61.40
2019-06-20T10:50:25.702Z,62.90
2019-06-20T10:52:55.640Z,60.60
2019-06-20T10:55:25.490Z,63.50
2019-06-20T10:57:54.540Z,58.10
2019-06-20T11:00:32.665Z,58.50
2019-06-20T11:02:56.365Z,59.00
2019-06-20T11:05:25.647Z,58.90
2019-06-20T11:07:54.673Z,58.90
2019-06-20T11:10:24.745Z,59.40
2019-06-20T11:12:56.015Z,59.30
2019-06-20T11:15:24.770Z,58.60
2019-06-20T11:17:56.348Z,58.50
2019-06-20T11:20:26.036Z,59.80
2019-06-20T11:22:55.065Z,58.50
2019-06-20T11:25:24.668Z,62.10
2019-06-20T11:27:53.649Z,59.40
2019-06-20T11:30:28.225Z,58.90
2019-06-20T11:32:57.194Z,62.00
2019-06-20T11:35:26.214Z,59.00
2019-06-20T11:37:55.193Z,60.10
2019-06-20T11:40:24.303Z,59.80
2019-06-20T11:42:53.259Z,57.70
2019-06-20T11:45:22.945Z,60.30
2019-06-20T11:47:51.891Z,59.10
2019-06-20T11:50:21.839Z,59.60
2019-06-20T11:52:50.941Z,59.90
2019-06-20T11:55:20.509Z,56.80
2019-06-20T11:57:49.575Z,54.60
2019-06-20T12:00:19.950Z,56.10
2019-06-20T12:02:50.158Z,56.90
2019-06-20T12:05:19.488Z,56.00
2019-06-20T12:07:49.902Z,59.00
2019-06-20T12:10:20.262Z,52.40
2019-06-20T12:12:49.574Z,52.20
2019-06-20T12:15:19.472Z,52.80
2019-06-20T12:17:49.287Z,51.70
2019-06-20T12:20:20.203Z,51.40
2019-06-20T12:22:50.721Z,52.20
2019-06-20T12:25:21.592Z,51.20
2019-06-20T12:27:50.763Z,50.20
2019-06-20T12:30:21.331Z,51.80
2019-06-20T12:32:50.340Z,54.00
2019-06-20T12:35:20.055Z,50.80
2019-06-20T12:37:49.971Z,52.60
2019-06-20T12:40:21.408Z,50.80
2019-06-20T12:42:50.375Z,52.40
2019-06-20T12:45:19.478Z,50.20
2019-06-20T12:47:48.511Z,46.10
2019-06-20T12:50:18.207Z,47.40
2019-06-20T12:52:47.612Z,47.50
2019-06-20T12:55:17.613Z,48.20
2019-06-20T12:57:46.653Z,50.30
2019-06-20T13:00:16.554Z,50.50
2019-06-20T13:02:45.663Z,52.20
2019-06-20T13:05:15.905Z,52.10
2019-06-20T13:07:46.264Z,52.40
2019-06-20T13:10:16.786Z,54.20
2019-06-20T13:12:46.351Z,54.50
2019-06-20T13:15:15.995Z,53.80
2019-06-20T13:17:45.154Z,50.00
2019-06-20T13:20:15.986Z,49.20
2019-06-20T13:22:46.448Z,48.70
2019-06-20T13:25:17.290Z,47.70
2019-06-20T13:27:47.626Z,51.80
2019-06-20T13:30:17.527Z,47.20
2019-06-20T13:32:47.130Z,48.90
2019-06-20T13:35:16.751Z,48.80
2019-06-20T13:37:46.263Z,48.80
2019-06-20T13:40:16.923Z,47.70
2019-06-20T13:42:46.221Z,49.30
2019-06-20T13:45:21.621Z,51.00
2019-06-20T13:47:50.709Z,49.80
2019-06-20T13:50:20.814Z,50.20
2019-06-20T13:52:51.325Z,49.60
2019-06-20T13:55:20.663Z,49.80
2019-06-20T13:57:49.794Z,49.70
2019-06-20T14:00:21.508Z,49.20
2019-06-20T14:02:51.719Z,49.10
2019-06-20T14:05:21.241Z,51.00
2019-06-20T14:07:53.572Z,52.30
2019-06-20T14:10:21.869Z,52.80
2019-06-20T14:12:51.287Z,51.90
2019-06-20T14:15:20.394Z,54.20
2019-06-20T14:17:49.967Z,54.40
2019-06-20T14:20:19.743Z,54.40
2019-06-20T14:22:49.384Z,53.60
2019-06-20T14:25:20.003Z,55.20
2019-06-20T14:27:49.522Z,55.60
2019-06-20T14:30:21.002Z,55.70
2019-06-20T14:32:51.258Z,56.80
2019-06-20T14:35:21.190Z,57.20
2019-06-20T14:37:51.837Z,58.10
2019-06-20T14:40:21.933Z,58.50
2019-06-20T14:42:52.211Z,58.10
2019-06-20T14:45:22.129Z,56.80
2019-06-20T14:47:52.420Z,55.50
2019-06-20T14:50:22.194Z,55.50
2019-06-20T14:52:52.151Z,57.00
2019-06-20T14:55:21.719Z,57.80
2019-06-20T14:57:52.312Z,57.40
2019-06-20T15:00:22.774Z,57.60
2019-06-20T15:02:54.444Z,57.00
2019-06-20T15:05:23.077Z,58.40
2019-06-20T15:07:53.843Z,56.70
2019-06-20T15:10:23.407Z,56.20
2019-06-20T15:12:53.766Z,54.30
2019-06-20T15:15:23.216Z,56.20
2019-06-20T15:17:55.399Z,56.40
2019-06-20T15:20:22.868Z,55.80
2019-06-20T15:22:52.783Z,55.70
2019-06-20T15:25:22.563Z,57.10
2019-06-20T15:27:53.336Z,56.50
2019-06-20T15:30:23.151Z,58.00
2019-06-20T15:33:04.355Z,55.30
2019-06-20T15:35:22.981Z,55.40
2019-06-20T15:37:53.619Z,55.40
2019-06-20T15:40:22.885Z,55.00
2019-06-20T15:42:53.440Z,54.70
2019-06-20T15:45:22.587Z,55.00
2019-06-20T15:47:51.940Z,54.80
2019-06-20T15:50:21.107Z,54.20
2019-06-20T15:52:50.174Z,54.20
2019-06-20T15:55:20.330Z,55.30
2019-06-20T15:57:49.380Z,55.90
2019-06-20T16:00:19.541Z,53.90
2019-06-20T16:02:48.963Z,55.20
2019-06-20T16:05:18.166Z,54.30
2019-06-20T16:07:47.314Z,55.80
2019-06-20T16:10:17.083Z,55.60
2019-06-20T16:12:46.135Z,55.40
2019-06-20T16:15:22.503Z,56.20
2019-06-20T16:17:51.678Z,54.90
2019-06-20T16:20:21.754Z,55.20
2019-06-20T16:22:50.781Z,53.30
2019-06-20T16:25:20.869Z,53.60
2019-06-20T16:27:49.972Z,55.00
2019-06-20T16:30:20.080Z,54.70
2019-06-20T16:32:49.137Z,54.00
2019-06-20T16:35:18.546Z,53.90
2019-06-20T16:37:47.592Z,54.20
2019-06-20T16:40:18.654Z,55.10
2019-06-20T16:42:47.609Z,53.90
2019-06-20T16:45:18.466Z,53.60
2019-06-20T16:47:47.461Z,53.50
2019-06-20T16:50:16.647Z,51.40
2019-06-20T16:52:46.035Z,52.00
2019-06-20T16:55:15.339Z,53.30
2019-06-20T16:57:44.305Z,53.00
2019-06-20T17:00:13.911Z,52.30
2019-06-20T17:02:42.944Z,53.10
2019-06-20T17:05:12.949Z,53.70
2019-06-20T17:07:41.990Z,52.50
2019-06-20T17:10:11.127Z,52.10
2019-06-20T17:12:40.180Z,51.40
2019-06-20T17:15:09.682Z,52.30
2019-06-20T17:17:38.798Z,52.80
2019-06-20T17:20:09.414Z,52.10
2019-06-20T17:22:38.725Z,52.80
2019-06-20T17:25:07.845Z,52.90
2019-06-20T17:27:37.048Z,52.80
2019-06-20T17:30:12.025Z,52.60
2019-06-20T17:32:41.118Z,53.20
2019-06-20T17:35:10.814Z,52.60
2019-06-20T17:37:40.648Z,52.10
2019-06-20T17:40:11.656Z,51.30
2019-06-20T17:42:40.996Z,52.00
2019-06-20T17:45:11.157Z,51.10
2019-06-20T17:47:40.220Z,51.00
2019-06-20T17:50:12.550Z,50.20
2019-06-20T17:52:41.706Z,49.90
2019-06-20T17:55:12.729Z,50.60
2019-06-20T17:57:41.764Z,50.90
2019-06-20T18:00:18.329Z,49.60
2019-06-20T18:02:47.676Z,50.80
2019-06-20T18:05:17.574Z,50.10
2019-06-20T18:07:46.632Z,49.10
2019-06-20T18:10:17.723Z,49.80
2019-06-20T18:12:46.748Z,50.70
2019-06-20T18:15:17.526Z,50.70
2019-06-20T18:17:46.583Z,48.40
2019-06-20T18:20:17.078Z,49.90
2019-06-20T18:22:46.048Z,49.70
2019-06-20T18:25:15.353Z,50.70
2019-06-20T18:27:44.383Z,50.00
2019-06-20T18:30:14.252Z,50.10
2019-06-20T18:32:43.356Z,50.00
2019-06-20T18:35:12.645Z,48.90
2019-06-20T18:37:41.667Z,48.80
2019-06-20T18:40:11.598Z,49.70
2019-06-20T18:42:40.632Z,50.00
2019-06-20T18:45:11.301Z,49.70
2019-06-20T18:47:40.272Z,49.90
2019-06-20T18:50:10.063Z,49.30
2019-06-20T18:52:51.838Z,48.80
2019-06-20T18:55:10.988Z,49.00
2019-06-20T18:57:40.054Z,49.10
2019-06-20T19:00:11.144Z,49.10
2019-06-20T19:02:40.262Z,48.70
2019-06-20T19:05:10.953Z,47.90
2019-06-20T19:07:39.923Z,48.10
2019-06-20T19:10:09.915Z,48.00
2019-06-20T19:12:38.961Z,48.00
2019-06-20T19:15:08.658Z,47.60
2019-06-20T19:17:37.709Z,47.10
2019-06-20T19:20:07.696Z,47.00
2019-06-20T19:22:36.805Z,47.20
2019-06-20T19:25:08.241Z,48.40
2019-06-20T19:27:46.034Z,47.50
2019-06-20T19:30:09.503Z,47.50
2019-06-20T19:32:38.589Z,48.10
2019-06-20T19:35:10.359Z,48.50
2019-06-20T19:37:39.396Z,48.50
2019-06-20T19:40:09.814Z,49.00
2019-06-20T19:42:38.784Z,48.40
2019-06-20T19:45:10.590Z,49.40
2019-06-20T19:47:40.466Z,49.90
2019-06-20T19:50:10.387Z,50.40
2019-06-20T19:52:39.951Z,49.70
2019-06-20T19:55:09.927Z,50.20
2019-06-20T19:57:39.105Z,50.30
2019-06-20T20:00:09.109Z,50.70
2019-06-20T20:02:38.143Z,49.90
2019-06-20T20:05:18.321Z,50.00
2019-06-20T20:07:39.776Z,49.80
2019-06-20T20:10:10.250Z,50.30
2019-06-20T20:12:39.212Z,50.30
2019-06-20T20:15:11.667Z,50.60
2019-06-20T20:17:40.697Z,50.50
2019-06-20T20:20:10.265Z,50.80
2019-06-20T20:22:39.365Z,51.40
2019-06-20T20:25:09.224Z,51.90
2019-06-20T20:27:38.246Z,51.70
2019-06-20T20:30:13.107Z,52.40
2019-06-20T20:32:42.174Z,52.80
2019-06-20T20:35:11.376Z,52.70
2019-06-20T20:37:40.517Z,52.90
2019-06-20T20:40:10.485Z,52.70
2019-06-20T20:42:39.542Z,52.90
2019-06-20T20:45:09.412Z,53.30
2019-06-20T20:47:38.431Z,53.50
2019-06-20T20:50:08.927Z,53.80
2019-06-20T20:52:38.101Z,53.60
2019-06-20T20:55:08.508Z,53.80
2019-06-20T20:57:37.732Z,54.20
2019-06-20T21:00:12.721Z,54.30
2019-06-20T21:02:41.670Z,55.00
2019-06-20T21:05:10.960Z,55.00
2019-06-20T21:07:40.075Z,55.10
2019-06-20T21:10:10.146Z,55.00
2019-06-20T21:12:39.191Z,55.00
2019-06-20T21:15:08.764Z,55.00
2019-06-20T21:17:37.760Z,55.50
2019-06-20T21:20:07.646Z,55.50
2019-06-20T21:22:37.002Z,55.80
2019-06-20T21:25:06.896Z,55.80
2019-06-20T21:27:36.078Z,56.50
2019-06-20T21:30:10.159Z,56.10
2019-06-20T21:32:39.182Z,56.20
2019-06-20T21:35:11.401Z,56.60
2019-06-20T21:37:40.421Z,57.50
2019-06-20T21:40:09.975Z,57.20
2019-06-20T21:42:38.942Z,57.50
2019-06-20T21:45:09.496Z,57.60
2019-06-20T21:47:38.534Z,57.60
2019-06-20T21:50:08.435Z,57.90
2019-06-20T21:52:38.419Z,57.90
2019-06-20T21:55:08.480Z,57.80
2019-06-20T21:57:37.567Z,57.70
2019-06-20T22:00:23.507Z,57.80
2019-06-20T22:02:52.540Z,57.70
2019-06-20T22:05:21.672Z,58.20
2019-06-20T22:07:50.769Z,58.40
2019-06-20T22:10:19.945Z,58.60
2019-06-20T22:12:48.932Z,58.60
2019-06-20T22:15:18.495Z,58.70
2019-06-20T22:17:47.529Z,58.90
2019-06-20T22:20:18.205Z,59.00
2019-06-20T22:22:47.286Z,59.10
2019-06-20T22:25:16.879Z,59.30
2019-06-20T22:27:45.906Z,59.10
2019-06-20T22:30:15.548Z,59.10
2019-06-20T22:32:44.611Z,59.20
2019-06-20T22:35:13.896Z,59.30
2019-06-20T22:37:42.871Z,59.30
2019-06-20T22:40:12.714Z,59.20
2019-06-20T22:42:41.734Z,59.20
2019-06-20T22:45:11.834Z,59.30
2019-06-20T22:47:40.859Z,59.00
2019-06-20T22:50:10.452Z,58.90
2019-06-20T22:52:39.498Z,59.00
2019-06-20T22:55:08.866Z,59.20
2019-06-20T22:57:37.850Z,59.40
2019-06-20T23:00:07.840Z,59.90
2019-06-20T23:02:36.866Z,59.80
2019-06-20T23:05:06.878Z,59.70
2019-06-20T23:07:35.911Z,59.90
2019-06-20T23:10:11.019Z,59.70
2019-06-20T23:12:39.317Z,60.20
2019-06-20T23:15:08.834Z,60.40
2019-06-20T23:17:38.165Z,61.10
2019-06-20T23:20:10.062Z,61.60
2019-06-20T23:22:39.102Z,61.20
2019-06-20T23:25:08.670Z,61.00
2019-06-20T23:27:37.630Z,61.50
2019-06-20T23:30:08.504Z,61.10
2019-06-20T23:32:37.477Z,61.20
2019-06-20T23:35:07.435Z,61.70
2019-06-20T23:37:36.537Z,62.40
2019-06-20T23:40:07.541Z,62.60
2019-06-20T23:42:36.706Z,62.40
2019-06-20T23:45:07.973Z,62.90
2019-06-20T23:47:37.071Z,63.40
2019-06-20T23:50:10.159Z,63.60
2019-06-20T23:52:46.656Z,63.90
2019-06-20T23:55:16.128Z,64.00
2019-06-20T23:57:45.085Z,64.00
